Flight Track Log - Related Links

Times and Time Zones

All times are in EDT time to prevent confusion due to time zone crossing. See the N905LP flight status page for this flight to view local times or setup timezone preferences in your user account.

Time Position Orientation Groundspeed Altitude Reporting Facility
EDT Latitude Longitude Course Direction KTS MPH feet Rate Location/Type
Tue 02:27:26 PM 41.3169 -95.9086 North 146 168 2,100  Level Minneapolis Center
Tue 02:28:25 PM 41.3675 -95.9067 North 207 238 3,800 2,331 Climbing Minneapolis Center
Tue 02:29:27 PM 41.3836 -95.8156 77° East 266 306 6,800 3,000 Climbing Minneapolis Center
Tue 02:30:29 PM 41.3739 -95.7103 97° East 277 319 10,000 2,226 Climbing Minneapolis Center
Tue 02:31:31 PM 41.3644 -95.5856 96° East 309 356 11,400 1,935 Climbing Minneapolis Center
Tue 02:32:33 PM 41.3542 -95.4458 96° East 371 427 14,000 2,371 Climbing Minneapolis Center
Tue 02:33:35 PM 41.3439 -95.3014 95° East 387 445 16,300 2,304 Climbing Minneapolis Center
Tue 02:34:38 PM 41.3500 -95.1186 87° East 407 468 18,800 2,051 Climbing Minneapolis Center
Tue 02:36:13 PM 41.3719 -94.8822 83° East 431 496 21,700 1,758 Climbing Chicago Center
Tue 02:37:15 PM 41.4014 -94.7214 76° East 444 511 23,400 1,839 Climbing Chicago Center
Tue 02:38:17 PM 41.4472 -94.5239 73° East 462 532 25,500 1,694 Climbing Chicago Center
Tue 02:39:19 PM 41.4719 -94.3517 79° East 472 543 26,900 1,452 Climbing Chicago Center
Tue 02:40:21 PM 41.4906 -94.1725 82° East 486 559 28,500 1,210 Climbing Chicago Center
Tue 02:41:23 PM 41.5100 -93.9922 82° East 492 566 29,400 1,548 Climbing Chicago Center
Tue 02:42:25 PM 41.5131 -93.8064 89° East 498 573 31,700 1,776 Climbing Chicago Center
Tue 02:43:28 PM 41.5214 -93.6239 86° East 495 570 33,100 1,392 Climbing Chicago Center
Tue 02:44:30 PM 41.5358 -93.3983 85° East 513 590 34,600 1,113 Climbing Chicago Center
Tue 02:45:32 PM 41.5322 -93.2064 91° East 521 600 35,400 677 Climbing Chicago Center
Tue 02:46:34 PM 41.5278 -93.0117 92° East 525 604 36,000 774 Climbing Chicago Center
Tue 02:47:36 PM 41.5233 -92.8197 92° East 523 602 37,000 1,258 Climbing Chicago Center
Tue 02:48:38 PM 41.5244 -92.5975 90° East 519 597 38,600 968 Climbing Chicago Center
Tue 02:49:40 PM 41.5517 -92.4128 79° East 516 594 39,000 194 Climbing Chicago Center
Tue 02:50:42 PM 41.5781 -92.2261 79° East 520 598 39,000  Level Chicago Center
Tue 02:51:44 PM 41.6067 -92.0408 78° East 517 595 39,000  Level Chicago Center
Tue 02:52:46 PM 41.6331 -91.8514 79° East 523 602 39,000  Level Chicago Center
Tue 02:53:48 PM 41.6653 -91.6258 79° East 522 601 39,000  Level Chicago Center
Tue 02:54:51 PM 41.6922 -91.4375 79° East 523 602 39,000  Level Chicago Center
Tue 02:55:53 PM 41.7172 -91.2494 80° East 521 600 39,000  Level Chicago Center
Tue 02:56:55 PM 41.7436 -91.0617 79° East 521 600 39,000  Level Chicago Center
Tue 02:57:57 PM 41.7739 -90.8350 80° East 523 602 39,000  Level Chicago Center
Tue 02:58:59 PM 41.7997 -90.6453 80° East 522 601 39,000  Level Chicago Center
Tue 03:00:01 PM 41.8239 -90.4556 80° East 524 603 39,000  Level Chicago Center
Tue 03:01:03 PM 41.8472 -90.2644 81° East 525 604 39,000  Level Chicago Center
Tue 03:02:05 PM 41.8761 -90.0369 80° East 524 603 39,000  Level Chicago Center
Tue 03:03:07 PM 41.9000 -89.8411 81° East 519 597 39,000  Level Chicago Center
Tue 03:04:09 PM 41.9225 -89.6519 81° East 516 594 39,000  Level Chicago Center
Tue 03:05:11 PM 41.9478 -89.4625 80° East 517 595 39,000  Level Chicago Center
Tue 03:06:14 PM 41.9706 -89.2700 81° East 521 600 39,000  Level Chicago Center
Tue 03:07:16 PM 41.9914 -89.0814 81° East 517 595 39,000  Level Chicago Center
Tue 03:08:18 PM 42.0181 -88.8556 81° East 522 601 39,000  Level Chicago Center
Tue 03:09:20 PM 42.0403 -88.6636 81° East 522 601 39,000  Level Chicago Center
Tue 03:10:22 PM 42.0614 -88.4717 82° East 519 597 39,000  Level Chicago Center
Tue 03:11:24 PM 42.0833 -88.2783 81° East 521 600 39,000 339 Level Chicago Center
Tue 03:12:26 PM 42.1042 -88.0894 81° East 516 594 39,700 968 Climbing Chicago Center
Tue 03:13:28 PM 42.1278 -87.8639 82° East 524 603 41,000 629 Climbing Chicago Center
Tue 03:14:30 PM 42.1478 -87.6689 82° East 526 605 41,000  Level Chicago Center
Tue 03:15:33 PM 42.1697 -87.4719 81° East 530 610 41,000  Level Chicago Center
Tue 03:16:35 PM 42.1889 -87.2769 82° East 529 609 41,000  Level Chicago Center
Tue 03:17:37 PM 42.2117 -87.0503 82° East 523 602 41,000  Level Chicago Center
Tue 03:19:41 PM 42.2472 -86.6800 82° East 527 606 41,000  Level Chicago Center
Tue 03:20:43 PM 42.2667 -86.4819 82° East 530 610 41,000  Level Chicago Center
Tue 03:21:45 PM 42.2889 -86.2436 83° East 533 613 41,000  Level Chicago Center
Tue 03:22:47 PM 42.3047 -86.0611 83° East 531 611 41,000  Level Chicago Center
Tue 03:23:50 PM 42.3228 -85.8650 83° East 531 611 41,000  Level Chicago Center
Tue 03:24:52 PM 42.3439 -85.6278 83° East 534 615 41,000  Level Chicago Center
Tue 03:25:54 PM 42.3608 -85.4275 83° East 539 620 41,000  Level Chicago Center
Tue 03:26:56 PM 42.3786 -85.2281 83° East 539 620 41,000  Level Chicago Center
Tue 03:27:58 PM 42.3936 -85.0286 84° East 538 619 41,000  Level Chicago Center
Tue 03:29:00 PM 42.4100 -84.8292 84° East 537 618 41,000  Level Chicago Center
Tue 03:30:02 PM 42.4289 -84.5906 84° East 536 617 41,000  Level Chicago Center
Tue 03:31:04 PM 42.4444 -84.3914 84° East 534 615 41,000  Level Chicago Center
Tue 03:32:04 PM 42.4553 -84.2053 85° East 519 597 41,000  Level Cleveland Center
Tue 03:33:04 PM 42.4717 -84.0064 84° East 529 609 41,000  Level Cleveland Center
Tue 03:34:04 PM 42.4858 -83.8044 84° East 536 617 41,000  Level Cleveland Center
Tue 03:35:04 PM 42.5019 -83.6022 84° East 536 617 41,000  Level Cleveland Center
Tue 03:36:04 PM 42.5175 -83.3947 84° East 536 617 41,000  Level Cleveland Center
Tue 03:37:04 PM 42.5286 -83.1922 86° East 536 617 41,000  Level Cleveland Center
Tue 03:38:04 PM 42.5392 -82.9869 86° East 536 617 41,000  Level Cleveland Center
Tue 03:39:04 PM 42.5517 -82.7844 85° East 536 617 41,000  Level Cleveland Center
Tue 03:40:04 PM 42.5639 -82.5706 85° East 531 611 41,000  Level Cleveland Center
Tue 03:41:04 PM 42.5778 -82.3681 85° East 531 611 41,000  Level Cleveland Center
Tue 03:42:04 PM 42.5867 -82.1708 86° East 531 611 41,000  Level Cleveland Center
Tue 03:43:04 PM 42.5978 -81.9736 86° East 531 611 41,000  Level Cleveland Center
Tue 03:44:04 PM 42.6083 -81.7764 86° East 526 605 41,000  Level Cleveland Center
Tue 03:45:04 PM 42.6183 -81.5989 86° East 526 605 41,000  Level Cleveland Center
Tue 03:46:04 PM 42.6283 -81.3875 86° East 516 594 41,000  Level Cleveland Center
Tue 03:47:04 PM 42.6400 -81.1928 85° East 516 594 41,000  Level Cleveland Center
Tue 03:48:04 PM 42.6492 -81.0039 86° East 516 594 41,000  Level Cleveland Center
Tue 03:49:04 PM 42.6558 -80.8061 87° East 516 594 41,000  Level Cleveland Center
Tue 03:50:04 PM 42.6667 -80.6142 86° East 516 594 41,000  Level Cleveland Center
Tue 03:51:04 PM 42.6747 -80.4194 87° East 510 587 41,000  Level Cleveland Center
Tue 03:52:04 PM 42.6786 -80.2244 88° East 518 596 41,000  Level Cleveland Center
Tue 03:53:04 PM 42.6861 -80.0522 87° East 518 596 41,000  Level Cleveland Center
Tue 03:54:04 PM 42.6956 -79.8544 86° East 518 596 41,000  Level Cleveland Center
Tue 03:55:04 PM 42.7025 -79.6594 87° East 518 596 41,000  Level Cleveland Center
Tue 03:56:04 PM 42.7111 -79.4586 87° East 518 596 41,000  Level Cleveland Center
Tue 03:57:04 PM 42.7175 -79.2636 87° East 518 596 41,000  Level Cleveland Center
Tue 03:58:04 PM 42.7211 -79.0683 88° East 518 596 41,000  Level Cleveland Center
Tue 03:59:04 PM 42.7247 -78.8733 88° East 518 596 41,000  Level Cleveland Center
Tue 04:00:04 PM 42.7322 -78.6808 87° East 513 590 41,000  Level Cleveland Center
Tue 04:01:04 PM 42.7353 -78.4914 89° East 513 590 41,000  Level Cleveland Center
Tue 04:02:04 PM 42.7397 -78.2933 88° East 513 590 41,000  Level Cleveland Center
Tue 04:03:04 PM 42.7442 -78.1008 88° East 513 590 41,000  Level Cleveland Center
Tue 04:04:04 PM 42.7481 -77.9056 88° East 513 590 41,000  Level Cleveland Center
Tue 04:05:04 PM 42.7494 -77.7047 89° East 519 597 41,000  Level Cleveland Center
Tue 04:06:04 PM 42.7569 -77.5064 87° East 519 597 41,000  Level Cleveland Center
Tue 04:07:47 PM 42.7581 -77.1806 90° East 525 604 41,000  Level Boston Center
Tue 04:09:00 PM 42.7597 -76.9853 89° East 513 590 41,000  Level Boston Center
Tue 04:10:00 PM 42.7622 -76.7592 89° East 508 585 41,000  Level Boston Center
Tue 04:11:01 PM 42.7633 -76.5639 89° East 508 585 41,000  Level Boston Center
Tue 04:11:58 PM 42.7639 -76.3717 90° East 508 585 41,000  Level Boston Center
Tue 04:12:59 PM 42.7639 -76.1819 90° East 508 585 41,000  Level Boston Center
Tue 04:14:00 PM 42.7661 -75.9869 89° East 508 585 41,000  Level Boston Center
Tue 04:15:01 PM 42.7658 -75.7944 90° East 508 585 41,000  Level Boston Center
Tue 04:15:58 PM 42.7650 -75.6022 90° East 508 585 41,000 -1,282 Level Boston Center
Tue 04:16:58 PM 42.7642 -75.4011 90° East 520 598 38,500 -2,132 Descending Boston Center
Tue 04:17:59 PM 42.7628 -75.2003 90° East 520 598 36,700 -1,672 Descending Boston Center
Tue 04:19:00 PM 42.7614 -74.9994 90° East 525 604 35,100 -1,537 Descending Boston Center
Tue 04:20:00 PM 42.7614 -74.8014 90° East 525 604 33,600 -1,068 Descending Boston Center
Tue 04:20:58 PM 42.7572 -74.6006 92° East 530 610 33,000 -303 Descending Boston Center
Tue 04:21:59 PM 42.7547 -74.3800 91° East 539 620 33,000 -496 Level Boston Center
Tue 04:22:59 PM 42.7497 -74.1789 92° East 534 615 32,000 -992 Descending Boston Center
Tue 04:24:00 PM 42.7483 -73.9781 90° East 534 615 31,000 -992 Descending Boston Center
Tue 04:25:00 PM 42.7406 -73.7828 93° East 534 615 30,000 -942 Descending Boston Center
Tue 04:26:01 PM 42.7261 -73.5847 96° East 529 609 29,100 -712 Descending Boston Center
Tue 04:26:58 PM 42.6797 -73.3947 108° East 516 594 28,600 -655 Descending Boston Center
Tue 04:28:00 PM 42.6100 -73.2694 127° Southeast 516 594 27,800 -1,050 Descending Boston Center
Tue 04:28:58 PM 42.5258 -73.0767 121° Southeast 530 610 26,500 -1,678 Descending Boston Center
Tue 04:29:58 PM 42.4975 -72.8933 102° East 496 571 24,500 -1,983 Descending Boston Center
Tue 04:30:59 PM 42.5064 -72.7019 86° East 491 565 22,500 -1,983 Descending Boston Center
Tue 04:31:59 PM 42.5192 -72.5275 84° East 479 551 20,500 -2,000 Descending Boston Center
Tue 04:32:59 PM 42.5297 -72.3611 85° East 458 527 18,500 -2,231 Descending Boston Center
Tue 04:34:00 PM 42.5378 -72.1978 86° East 437 503 16,000 -2,926 Descending Boston Center
Tue 04:35:00 PM 42.5414 -72.0314 88° East 406 467 12,600 -2,926 Descending Boston Center
Tue 04:36:01 PM 42.5325 -71.9189 96° East 356 410 10,100 -3,025 Descending Boston Center
Tue 04:36:59 PM 42.5214 -71.7867 96° East 320 368 6,600 -2,237 Descending Boston Center
Tue 04:37:59 PM 42.5147 -71.6881 95° East 300 345 5,700 -1,027 Descending Boston Center
Tue 04:38:50 PM 42.5167 -71.5833 89° East 276 318 4,700 -1,081 Descending KA90
Tue 04:39:50 PM 42.5167 -71.4833 90° East 251 289 3,700 -1,000 Descending KA90
Tue 04:40:56 PM 42.5167 -71.3833 90° East 232 267 2,600 -857 Descending KA90
Tue 04:41:56 PM 42.5167 -71.3000 90° East 229 264 1,900 -500 Descending KA90
Tue 04:42:56 PM 42.5000 -71.2333 109° East 193 222 1,600 -300 Descending KA90
Tue 04:43:56 PM 42.4833 -71.1667 109° East 182 209 1,300 -263 Descending KA90
Tue 04:44:50 PM 42.4667 -71.2167 246° West 153 176 1,100 -474 Descending KA90
Tue 04:45:50 PM 42.4667 -71.2500 270° West 137 158 400 2,970 Descending KA90
Tue 04:48:10 PM 42.4533 -71.3369 258° West 96 110 11,000 3,164 Climbing Boston Center
Tue 04:49:11 PM 42.4475 -71.3708 257° West 96 110 11,000  Level Boston Center
Tue 04:50:11 PM 42.4436 -71.3992 259° West 96 110 11,000  Level Boston Center
Tue 04:52:00 PM 42.4667 -71.2833 90° East  Level FlightAware Approximate

Login

Don't have an account? Register now (free) for customized features, flight alerts, and more!